Time;durP1;ratioP1;P1;durP2;ratioP2;P2;SDS_P1;SDS_P2;PMS_P1;PMS_P2;Temp;Humidity;BMP_temperature;BMP_pressure;BME280_temperature;BME280_humidity;BME280_pressure;Samples;Min_cycle;Max_cycle;Signal;HPM_P1;HPM_P2
2022/01/25 00:08:39;;;;;;;56.75;33.38;;;3.50;81.70;;;;;;5095548;28;20062;-86
2022/01/25 00:30:10;;;;;;;55.92;32.10;;;3.50;82.10;;;;;;5102300;27;20053;-86
2022/01/25 00:32:39;;;;;;;52.95;31.52;;;3.50;82.00;;;;;;5098352;28;20056;-86
2022/01/25 00:35:06;;;;;;;55.10;32.20;;;3.50;82.10;;;;;;5098567;28;20052;-85
2022/01/25 00:37:33;;;;;;;54.17;31.92;;;3.50;82.00;;;;;;5098496;27;20068;-86
2022/01/25 00:39:59;;;;;;;53.67;32.63;;;3.50;82.10;;;;;;5095516;28;20068;-86
2022/01/25 00:42:26;;;;;;;54.50;32.22;;;3.50;82.10;;;;;;5095097;28;20048;-86
2022/01/25 00:44:54;;;;;;;54.53;32.10;;;3.50;82.10;;;;;;5104986;28;20044;-86
2022/01/25 00:47:25;;;;;;;58.15;33.92;;;3.50;82.10;;;;;;5096231;28;20132;-85
2022/01/25 00:49:53;;;;;;;54.03;31.95;;;3.50;82.10;;;;;;5096695;27;20054;-86
2022/01/25 00:55:07;;;;;;;55.95;31.27;;;3.50;82.10;;;;;;5105691;27;20125;-86
2022/01/25 00:57:34;;;;;;;54.95;32.35;;;3.50;82.00;;;;;;5103119;27;20040;-86
2022/01/25 01:00:01;;;;;;;53.80;31.95;;;3.50;81.80;;;;;;5098237;28;20054;-86
2022/01/25 01:02:27;;;;;;;59.22;33.28;;;3.50;82.00;;;;;;5094840;28;20051;-86
2022/01/25 01:04:54;;;;;;;54.65;31.85;;;3.50;82.10;;;;;;5094964;28;20045;-86
2022/01/25 01:07:25;;;;;;;56.00;33.20;;;3.50;82.20;;;;;;5103409;28;20843;-86
2022/01/25 01:09:53;;;;;;;55.22;32.63;;;3.50;82.10;;;;;;5102029;28;20055;-86
2022/01/25 01:15:15;;;;;;;56.60;32.35;;;3.50;82.10;;;;;;5093425;28;20057;-86
2022/01/25 01:31:38;;;;;;;58.17;32.57;;;3.40;82.40;;;;;;5104081;28;20131;-86
2022/01/25 01:37:14;;;;;;;57.78;32.90;;;3.40;82.50;;;;;;5094539;28;20529;-85
2022/01/25 01:42:51;;;;;;;56.70;32.78;;;3.40;82.30;;;;;;5093244;28;20056;-87
2022/01/25 01:45:35;;;;;;;57.08;32.67;;;3.30;82.40;;;;;;5093844;28;20151;-85
2022/01/25 01:48:06;;;;;;;53.03;31.15;;;3.40;82.10;;;;;;5093602;28;20853;-86
2022/01/25 01:50:35;;;;;;;55.97;33.13;;;3.30;82.40;;;;;;5093681;28;20135;-85
2022/01/25 01:53:07;;;;;;;57.55;32.75;;;3.40;82.50;;;;;;5102753;28;20056;-86
2022/01/25 01:55:35;;;;;;;59.28;33.13;;;3.30;82.30;;;;;;5099784;28;20135;-85
2022/01/25 01:58:04;;;;;;;60.80;33.05;;;3.30;82.50;;;;;;5105281;28;20044;-85
2022/01/25 02:00:37;;;;;;;57.83;32.10;;;3.30;82.30;;;;;;5102868;27;20051;-85
2022/01/25 02:03:05;;;;;;;56.50;32.22;;;3.30;82.50;;;;;;5094401;28;20084;-85
2022/01/25 02:05:33;;;;;;;56.97;32.55;;;3.30;82.50;;;;;;5111214;28;20422;-86
2022/01/25 02:08:01;;;;;;;57.10;33.00;;;3.30;82.50;;;;;;5104168;27;20124;-86
2022/01/25 02:10:28;;;;;;;58.40;32.60;;;3.30;82.30;;;;;;5094002;28;20044;-86
2022/01/25 02:12:57;;;;;;;54.40;31.10;;;3.30;82.50;;;;;;5099814;28;20127;-86
2022/01/25 02:15:26;;;;;;;58.10;32.22;;;3.30;82.40;;;;;;5101761;28;20052;-86
2022/01/25 02:23:27;;;;;;;57.40;32.80;;;3.30;82.50;;;;;;5093927;28;20517;-85
2022/01/25 02:25:57;;;;;;;57.22;31.35;;;3.30;82.60;;;;;;5097866;28;20044;-86
2022/01/25 02:28:29;;;;;;;59.45;33.45;;;3.30;82.50;;;;;;5093325;28;20060;-86
2022/01/25 02:31:00;;;;;;;61.13;32.80;;;3.30;82.70;;;;;;5104418;28;20404;-86
2022/01/25 02:33:27;;;;;;;62.03;33.97;;;3.30;82.60;;;;;;5112887;27;20131;-85
2022/01/25 02:35:55;;;;;;;60.40;32.38;;;3.30;82.70;;;;;;5106480;28;20044;-87
2022/01/25 02:38:28;;;;;;;58.65;32.45;;;3.30;82.80;;;;;;5117100;28;20487;-86
2022/01/25 02:40:57;;;;;;;57.35;32.97;;;3.30;82.90;;;;;;5115888;28;20097;-86
2022/01/25 02:43:26;;;;;;;62.40;34.17;;;3.30;82.70;;;;;;5114525;28;20037;-86
2022/01/25 02:48:51;;;;;;;56.75;32.85;;;3.20;82.90;;;;;;5106725;27;20162;-86
2022/01/25 02:51:24;;;;;;;57.60;32.83;;;3.20;83.00;;;;;;5108662;28;20053;-85
2022/01/25 02:53:51;;;;;;;58.65;33.15;;;3.20;82.70;;;;;;5100047;28;20142;-85
2022/01/25 02:56:21;;;;;;;60.80;32.70;;;3.20;82.80;;;;;;5107573;28;20772;-85
2022/01/25 02:58:49;;;;;;;61.22;34.03;;;3.20;82.80;;;;;;5098967;28;20054;-86
2022/01/25 03:01:17;;;;;;;60.38;34.30;;;3.20;82.80;;;;;;5113234;27;20052;-86
2022/01/25 03:03:45;;;;;;;58.95;32.08;;;3.20;82.90;;;;;;5100700;27;20080;-85
2022/01/25 03:06:19;;;;;;;55.60;32.45;;;3.20;82.90;;;;;;5106310;27;20044;-86
2022/01/25 03:08:47;;;;;;;60.97;33.97;;;3.20;82.80;;;;;;5105872;28;20091;-85
2022/01/25 03:11:17;;;;;;;57.38;32.30;;;3.20;82.90;;;;;;5108888;28;20088;-85
2022/01/25 03:13:52;;;;;;;58.05;33.83;;;3.20;82.70;;;;;;5110952;27;20060;-85
2022/01/25 03:16:34;;;;;;;62.10;33.05;;;3.20;82.90;;;;;;5103319;28;20052;-85
2022/01/25 03:19:26;;;;;;;59.15;33.78;;;3.20;83.10;;;;;;5097426;28;20059;-84
2022/01/25 03:21:50;;;;;;;60.38;31.75;;;3.20;83.10;;;;;;5099073;28;20054;-85
2022/01/25 03:24:17;;;;;;;55.90;32.08;;;3.20;83.10;;;;;;5105661;28;20650;-85
2022/01/25 03:26:46;;;;;;;63.25;32.65;;;3.20;83.10;;;;;;5113064;27;20505;-85
2022/01/25 03:29:13;;;;;;;60.88;34.13;;;3.20;83.10;;;;;;5104196;27;20827;-85
2022/01/25 03:31:40;;;;;;;61.83;34.40;;;3.10;83.20;;;;;;5110013;28;20056;-86
2022/01/25 03:34:07;;;;;;;61.45;34.63;;;3.10;83.10;;;;;;5104704;28;20111;-86
2022/01/25 03:36:34;;;;;;;64.72;35.63;;;3.10;83.30;;;;;;5109068;28;20060;-86
2022/01/25 03:39:05;;;;;;;65.28;34.33;;;3.10;83.10;;;;;;5104485;28;20120;-85
2022/01/25 03:41:33;;;;;;;65.30;34.15;;;3.20;83.30;;;;;;5108091;28;20115;-86
2022/01/25 03:43:59;;;;;;;58.42;32.13;;;3.20;83.70;;;;;;5098659;28;20733;-85
2022/01/25 03:51:44;;;;;;;57.05;32.83;;;3.20;83.40;;;;;;5095010;28;20512;-85
2022/01/25 03:54:11;;;;;;;63.30;32.63;;;3.20;83.50;;;;;;5095653;28;20133;-85
2022/01/25 03:56:38;;;;;;;59.97;33.22;;;3.20;83.40;;;;;;5103943;28;20109;-85
2022/01/25 03:59:06;;;;;;;62.22;33.33;;;3.20;83.50;;;;;;5107400;27;20857;-86
2022/01/25 04:01:34;;;;;;;59.53;33.28;;;3.20;83.40;;;;;;5101169;28;20048;-85
2022/01/25 04:04:08;;;;;;;64.78;33.80;;;3.20;83.30;;;;;;5106630;28;20049;-85
2022/01/25 04:06:38;;;;;;;67.88;33.83;;;3.20;83.60;;;;;;5109656;28;20044;-85
2022/01/25 04:09:07;;;;;;;61.78;33.45;;;3.10;83.80;;;;;;5104973;27;22148;-85
2022/01/25 04:11:35;;;;;;;63.05;34.53;;;3.20;84.10;;;;;;5105394;28;20033;-85
2022/01/25 04:14:03;;;;;;;61.50;33.75;;;3.10;83.90;;;;;;5103360;28;20049;-85
2022/01/25 04:16:37;;;;;;;65.47;35.17;;;3.10;84.10;;;;;;5104971;28;20839;-85
2022/01/25 04:19:25;;;;;;;64.25;34.80;;;3.10;84.00;;;;;;5111270;28;20037;-84
2022/01/25 04:27:18;;;;;;;67.85;35.33;;;3.10;83.90;;;;;;5108991;28;20155;-85
2022/01/25 04:29:48;;;;;;;63.40;33.53;;;3.10;83.70;;;;;;5113819;28;21010;-84
2022/01/25 04:32:19;;;;;;;72.28;36.42;;;3.10;83.80;;;;;;5114868;27;20033;-85
2022/01/25 04:35:08;;;;;;;64.47;34.92;;;3.20;83.60;;;;;;5112673;28;20549;-85
2022/01/25 04:49:10;;;;;;;60.92;32.63;;;3.10;84.60;;;;;;5100790;28;20799;-85
2022/01/25 04:51:48;;;;;;;66.38;33.00;;;3.10;84.80;;;;;;5099286;27;20131;-85
2022/01/25 04:59:41;;;;;;;61.58;33.25;;;3.10;84.10;;;;;;5108884;28;20083;-85
2022/01/25 05:04:56;;;;;;;64.13;33.65;;;3.10;84.10;;;;;;5099217;28;20044;-85
2022/01/25 05:09:57;;;;;;;63.95;34.53;;;3.00;84.70;;;;;;5106089;27;20051;-84
2022/01/25 05:23:25;;;;;;;60.33;32.03;;;3.00;85.00;;;;;;5094339;28;20063;-85
2022/01/25 05:25:55;;;;;;;62.17;32.67;;;3.00;84.60;;;;;;5097696;28;20048;-85
2022/01/25 05:28:25;;;;;;;59.72;32.70;;;3.00;84.70;;;;;;5101022;28;20048;-84
2022/01/25 05:30:52;;;;;;;62.15;32.22;;;3.00;84.70;;;;;;5099720;28;20080;-85
2022/01/25 05:33:22;;;;;;;63.63;33.80;;;3.00;84.70;;;;;;5098883;28;20105;-85
2022/01/25 05:35:51;;;;;;;67.03;34.42;;;3.00;84.80;;;;;;5092870;28;20404;-85
2022/01/25 05:38:20;;;;;;;60.88;33.50;;;3.00;85.30;;;;;;5092627;28;20045;-85
2022/01/25 05:40:56;;;;;;;67.00;33.97;;;2.90;85.50;;;;;;5100278;28;20491;-85
2022/01/25 05:46:16;;;;;;;70.57;37.75;;;3.00;85.30;;;;;;5095799;28;20045;-85
2022/01/25 05:48:46;;;;;;;70.97;38.20;;;3.00;84.70;;;;;;5097984;27;20070;-85
2022/01/25 05:51:17;;;;;;;78.90;36.47;;;3.00;84.00;;;;;;5099699;28;20051;-85
2022/01/25 05:53:46;;;;;;;68.28;36.25;;;3.00;82.60;;;;;;5104334;28;20056;-85
2022/01/25 05:56:24;;;;;;;66.93;34.88;;;3.00;83.80;;;;;;5099823;28;20052;-85
2022/01/25 05:58:53;;;;;;;74.97;37.80;;;3.00;83.90;;;;;;5094266;28;20061;-86
2022/01/25 06:01:20;;;;;;;75.15;37.90;;;3.00;83.30;;;;;;5095209;28;20496;-85
2022/01/25 06:03:50;;;;;;;71.10;37.65;;;3.00;83.60;;;;;;5099653;28;20040;-85
2022/01/25 06:06:17;;;;;;;73.45;38.72;;;3.00;83.00;;;;;;5099435;28;20354;-85
2022/01/25 06:08:44;;;;;;;76.35;38.08;;;3.00;82.70;;;;;;5093764;28;20051;-85
2022/01/25 06:11:11;;;;;;;74.97;37.70;;;3.00;82.00;;;;;;5095552;28;20856;-86
2022/01/25 06:13:40;;;;;;;83.35;39.80;;;3.00;79.40;;;;;;5099035;28;20052;-86
2022/01/25 06:16:07;;;;;;;77.93;41.25;;;3.00;80.70;;;;;;5102035;27;20144;-86
2022/01/25 06:18:37;;;;;;;79.65;41.13;;;3.00;79.70;;;;;;5105111;27;20105;-86
2022/01/25 06:21:03;;;;;;;77.63;39.58;;;3.00;78.60;;;;;;5102390;28;20050;-85
2022/01/25 06:23:31;;;;;;;78.28;41.50;;;3.00;80.50;;;;;;5101283;27;20487;-84
2022/01/25 06:25:57;;;;;;;76.95;39.10;;;3.00;79.70;;;;;;5111000;28;20079;-85
2022/01/25 06:28:41;;;;;;;82.82;41.97;;;3.00;79.10;;;;;;5112937;27;20048;-85
2022/01/25 06:31:17;;;;;;;80.32;40.70;;;3.00;79.30;;;;;;5106148;28;20045;-85
2022/01/25 06:33:48;;;;;;;83.80;40.97;;;3.00;78.20;;;;;;5110827;28;20055;-84
2022/01/25 06:36:24;;;;;;;85.32;41.45;;;3.00;78.40;;;;;;5115028;28;20114;-85
2022/01/25 06:38:54;;;;;;;79.50;39.78;;;3.00;77.40;;;;;;5101880;28;20068;-85
2022/01/25 06:41:25;;;;;;;83.10;41.33;;;3.00;78.30;;;;;;5100901;28;20044;-85
2022/01/25 06:43:58;;;;;;;81.90;40.60;;;2.90;79.20;;;;;;5108364;28;20062;-85
2022/01/25 06:46:25;;;;;;;79.10;38.42;;;2.90;77.90;;;;;;5101190;28;20471;-85
2022/01/25 06:48:56;;;;;;;77.68;40.67;;;3.00;78.70;;;;;;5092242;28;20048;-85
2022/01/25 06:51:35;;;;;;;74.20;38.75;;;2.90;79.00;;;;;;5098982;28;20107;-85
2022/01/25 06:54:04;;;;;;;78.47;39.30;;;3.00;79.20;;;;;;5098250;28;20139;-85
2022/01/25 06:56:35;;;;;;;80.32;41.92;;;3.00;79.60;;;;;;5104921;28;20047;-85
2022/01/25 06:59:04;;;;;;;76.40;41.10;;;3.00;79.20;;;;;;5098191;28;20053;-85
2022/01/25 07:01:44;;;;;;;75.75;39.05;;;3.00;78.20;;;;;;5098253;27;20044;-85
2022/01/25 07:04:13;;;;;;;81.97;40.08;;;3.00;78.60;;;;;;5094237;27;20048;-85
2022/01/25 07:06:50;;;;;;;78.78;40.20;;;2.90;77.90;;;;;;5093043;28;20113;-85
2022/01/25 07:09:28;;;;;;;;;;;3.00;77.90;;;;;;5093708;28;20539;-85
2022/01/25 07:12:00;;;;;;;84.30;39.83;;;3.00;78.60;;;;;;5092129;28;19924;-85
2022/01/25 07:14:27;;;;;;;79.43;38.97;;;3.00;79.20;;;;;;5102631;28;20431;-85
2022/01/25 07:16:57;;;;;;;82.60;40.72;;;2.90;79.30;;;;;;5098942;28;20908;-85
2022/01/25 07:19:27;;;;;;;80.60;41.25;;;2.90;79.10;;;;;;5101411;27;20043;-85
2022/01/25 07:21:54;;;;;;;85.35;42.63;;;2.90;78.50;;;;;;5095531;28;20044;-85
2022/01/25 07:24:31;;;;;;;82.32;41.05;;;2.90;78.30;;;;;;5095767;28;20061;-85
2022/01/25 07:27:03;;;;;;;84.65;42.03;;;2.90;78.60;;;;;;5094796;28;20052;-84
2022/01/25 07:29:59;;;;;;;84.35;41.65;;;2.90;78.40;;;;;;5099820;28;20048;-85
2022/01/25 07:32:26;;;;;;;80.85;41.05;;;2.90;77.40;;;;;;5101462;28;20055;-84
2022/01/25 07:35:05;;;;;;;81.15;40.38;;;2.90;78.20;;;;;;5102058;28;20869;-84
2022/01/25 07:37:40;;;;;;;87.10;41.17;;;2.90;78.10;;;;;;5097359;28;20947;-85
2022/01/25 07:40:13;;;;;;;81.65;39.88;;;2.90;78.60;;;;;;5100081;28;20063;-85
2022/01/25 07:42:58;;;;;;;81.97;41.38;;;2.90;78.30;;;;;;5087465;27;20060;-85
2022/01/25 07:45:34;;;;;;;83.65;39.65;;;2.90;78.60;;;;;;5104204;27;20095;-85
2022/01/25 07:48:36;;;;;;;83.18;40.83;;;2.90;78.20;;;;;;5098711;27;20924;-84
2022/01/25 07:51:06;;;;;;;85.70;41.20;;;2.90;78.60;;;;;;5105917;27;20053;-85
2022/01/25 07:53:38;;;;;;;84.25;41.72;;;2.90;78.80;;;;;;5107125;28;20541;-84
2022/01/25 07:56:13;;;;;;;83.45;38.47;;;2.90;77.80;;;;;;5097632;28;20052;-85
2022/01/25 07:58:45;;;;;;;81.45;40.50;;;2.90;77.80;;;;;;5114352;28;20048;-85
2022/01/25 08:01:18;;;;;;;83.88;40.75;;;2.90;77.90;;;;;;5097434;28;20053;-86
2022/01/25 08:03:47;;;;;;;85.82;40.58;;;2.90;78.00;;;;;;5103082;28;20039;-85
2022/01/25 08:06:36;;;;;;;84.05;40.17;;;2.90;77.90;;;;;;5107781;27;20074;-85
2022/01/25 08:09:15;;;;;;;78.25;38.28;;;2.90;78.70;;;;;;5107363;28;20053;-85
2022/01/25 08:11:46;;;;;;;82.60;39.80;;;2.90;77.20;;;;;;5096681;28;20076;-85
2022/01/25 08:14:29;;;;;;;77.65;38.15;;;2.90;76.90;;;;;;5086965;28;20130;-84
2022/01/25 08:17:15;;;;;;;81.75;39.47;;;2.90;77.30;;;;;;5095893;27;20431;-84
2022/01/25 08:19:47;;;;;;;79.72;39.70;;;2.90;77.60;;;;;;5100372;28;20059;-84
2022/01/25 08:22:19;;;;;;;81.85;39.17;;;2.90;77.90;;;;;;5104031;28;20053;-84
2022/01/25 08:25:10;;;;;;;82.13;39.10;;;2.90;78.40;;;;;;5108872;28;20052;-85
2022/01/25 08:28:12;;;;;;;79.45;38.75;;;2.90;77.20;;;;;;5072399;27;20862;-85
2022/01/25 08:31:11;;;;;;;81.20;39.35;;;3.00;77.80;;;;;;5087021;28;20053;-85
2022/01/25 08:33:53;;;;;;;75.80;37.63;;;2.90;77.60;;;;;;5107534;28;20056;-85
2022/01/25 08:36:26;;;;;;;82.70;38.00;;;2.90;77.60;;;;;;5108000;28;20044;-85
2022/01/25 08:39:07;;;;;;;84.32;39.03;;;3.00;77.60;;;;;;5102319;28;20131;-85
2022/01/25 08:41:57;;;;;;;85.45;39.00;;;3.00;77.80;;;;;;5100539;27;20093;-84
2022/01/25 08:44:34;;;;;;;85.88;39.78;;;3.00;77.70;;;;;;5102305;28;20176;-86
2022/01/25 08:47:29;;;;;;;80.78;38.17;;;3.00;77.30;;;;;;5095055;27;20105;-85
2022/01/25 08:50:10;;;;;;;83.68;38.53;;;3.00;77.10;;;;;;5092069;28;20135;-85
2022/01/25 08:52:56;;;;;;;82.80;40.22;;;3.00;76.60;;;;;;5098311;27;20626;-85
2022/01/25 08:55:53;;;;;;;84.25;40.65;;;3.00;77.40;;;;;;5096246;28;20048;-85
2022/01/25 08:58:25;;;;;;;78.82;39.20;;;3.10;77.40;;;;;;5094384;28;20533;-85
2022/01/25 09:01:06;;;;;;;80.70;38.50;;;3.10;77.50;;;;;;5100350;28;20032;-85
2022/01/25 09:03:36;;;;;;;82.43;38.85;;;3.10;77.90;;;;;;5110587;28;20052;-85
2022/01/25 09:06:18;;;;;;;86.20;40.10;;;3.10;77.30;;;;;;5099237;27;20056;-85
2022/01/25 09:09:03;;;;;;;83.13;39.00;;;3.10;77.70;;;;;;5096184;27;20048;-85
2022/01/25 09:11:34;;;;;;;80.50;38.08;;;3.10;77.90;;;;;;5105892;28;20491;-85
2022/01/25 09:14:04;;;;;;;;;;;3.10;76.60;;;;;;5096228;27;20052;-85
2022/01/25 09:16:43;;;;;;;78.28;35.20;;;3.10;76.80;;;;;;5094099;28;19924;-85
2022/01/25 09:19:11;;;;;;;84.53;39.53;;;3.10;77.00;;;;;;5099984;28;20056;-84
2022/01/25 09:21:38;;;;;;;82.18;38.75;;;3.10;77.40;;;;;;5099067;28;20061;-85
2022/01/25 09:24:09;;;;;;;80.47;38.00;;;3.10;76.40;;;;;;5095379;28;20066;-85
2022/01/25 09:26:47;;;;;;;83.05;37.75;;;3.10;77.40;;;;;;5107321;28;20052;-85
2022/01/25 09:29:17;;;;;;;78.57;36.72;;;3.10;76.50;;;;;;5098840;28;20048;-85
2022/01/25 09:31:48;;;;;;;79.35;37.75;;;3.20;77.10;;;;;;5099589;28;20049;-85
2022/01/25 09:34:34;;;;;;;82.82;38.58;;;3.10;76.90;;;;;;5099385;28;20056;-85
2022/01/25 09:37:30;;;;;;;83.18;38.47;;;3.20;77.20;;;;;;5093923;28;20052;-84
2022/01/25 09:40:20;;;;;;;84.53;39.38;;;3.10;76.50;;;;;;5094157;28;20053;-85
2022/01/25 09:42:53;;;;;;;83.63;38.10;;;3.20;77.60;;;;;;5096779;28;20032;-85
2022/01/25 09:45:27;;;;;;;83.47;38.58;;;3.20;77.00;;;;;;5102975;27;20044;-85
2022/01/25 09:48:05;;;;;;;85.95;39.65;;;3.20;77.00;;;;;;5102916;28;20487;-85
2022/01/25 09:50:38;;;;;;;83.72;39.20;;;3.20;76.40;;;;;;5094269;28;20056;-85
2022/01/25 09:53:18;;;;;;;84.85;39.17;;;3.20;76.30;;;;;;5096335;28;20119;-85
2022/01/25 09:55:59;;;;;;;77.05;36.78;;;3.20;76.40;;;;;;5094718;28;20439;-85
2022/01/25 09:58:36;;;;;;;80.93;38.80;;;3.20;76.70;;;;;;5094015;28;20062;-85
2022/01/25 10:01:15;;;;;;;85.15;39.67;;;3.30;77.20;;;;;;5107106;28;20405;-85
2022/01/25 10:04:27;;;;;;;78.05;37.05;;;3.30;77.20;;;;;;5105807;27;20202;-85
2022/01/25 10:07:04;;;;;;;81.07;37.90;;;3.30;76.90;;;;;;5095487;28;20053;-85
2022/01/25 10:09:44;;;;;;;79.88;36.35;;;3.30;75.50;;;;;;5093171;28;20055;-85
2022/01/25 10:12:28;;;;;;;79.47;37.08;;;3.20;76.10;;;;;;5103784;28;20815;-85
2022/01/25 10:15:02;;;;;;;76.55;34.38;;;3.30;76.10;;;;;;5093267;28;20138;-85
2022/01/25 10:17:36;;;;;;;74.68;37.75;;;3.20;76.10;;;;;;5105051;28;20495;-85
2022/01/25 10:20:25;;;;;;;86.30;38.67;;;3.20;76.10;;;;;;5105628;27;20956;-84
2022/01/25 10:23:12;;;;;;;82.60;39.03;;;3.20;76.00;;;;;;5096329;28;20131;-85
2022/01/25 10:25:45;;;;;;;89.72;37.83;;;3.20;76.30;;;;;;5102354;28;20051;-85
2022/01/25 10:28:14;;;;;;;78.75;37.08;;;3.20;76.90;;;;;;5108095;28;20063;-84
2022/01/25 10:30:50;;;;;;;80.20;34.70;;;3.20;76.60;;;;;;5105718;28;20132;-86
2022/01/25 10:33:37;;;;;;;81.75;36.85;;;3.20;76.20;;;;;;5104203;28;20131;-85
2022/01/25 10:36:26;;;;;;;81.15;35.85;;;3.20;75.40;;;;;;5094409;28;20044;-85
2022/01/25 10:39:07;;;;;;;76.75;36.35;;;3.10;75.30;;;;;;5095611;28;20052;-85
2022/01/25 10:41:38;;;;;;;78.38;37.58;;;3.10;75.10;;;;;;5091537;28;20106;-85
2022/01/25 10:44:16;;;;;;;80.70;37.25;;;3.10;75.90;;;;;;5098288;28;20133;-84
2022/01/25 10:46:46;;;;;;;87.20;37.83;;;3.10;75.50;;;;;;5098621;28;20526;-85
2022/01/25 10:49:15;;;;;;;80.93;37.90;;;3.20;75.80;;;;;;5091158;28;20107;-85
2022/01/25 10:51:48;;;;;;;87.72;39.38;;;3.10;76.00;;;;;;5092833;28;20515;-85
2022/01/25 10:54:26;;;;;;;83.18;37.72;;;3.20;76.50;;;;;;5106943;28;20052;-84
2022/01/25 10:56:57;;;;;;;85.10;37.92;;;3.30;76.30;;;;;;5098049;27;20052;-85
2022/01/25 10:59:29;;;;;;;76.05;35.65;;;3.30;76.20;;;;;;5101017;28;20045;-85
2022/01/25 11:02:02;;;;;;;81.28;36.00;;;3.30;76.30;;;;;;5108041;28;20606;-85
2022/01/25 11:04:36;;;;;;;79.90;36.05;;;3.30;76.00;;;;;;5096310;28;20523;-87
2022/01/25 11:07:21;;;;;;;;;;;;;;;;;;;;;
2022/01/25 11:10:24;;;;;;;82.63;36.22;;;3.30;76.10;;;;;;5100828;27;20056;-85
2022/01/25 11:13:04;;;;;;;79.53;35.97;;;3.30;76.10;;;;;;5096896;28;20052;-85
2022/01/25 11:15:39;;;;;;;77.45;35.85;;;3.30;76.10;;;;;;5106075;27;20052;-85
2022/01/25 11:18:06;;;;;;;79.32;38.08;;;3.20;75.60;;;;;;5095342;28;20087;-85
2022/01/25 11:20:41;;;;;;;88.03;38.40;;;3.30;76.10;;;;;;5102440;28;20118;-85
2022/01/25 11:23:12;;;;;;;78.18;37.25;;;3.30;76.00;;;;;;5099344;28;20061;-85
2022/01/25 11:25:46;;;;;;;76.60;34.80;;;3.30;76.30;;;;;;5105629;27;20056;-85
2022/01/25 11:28:13;;;;;;;81.80;35.83;;;3.40;75.80;;;;;;5100924;28;20126;-85
2022/01/25 11:30:44;;;;;;;81.45;36.85;;;3.30;76.00;;;;;;5099345;28;20778;-85
2022/01/25 11:33:13;;;;;;;80.60;37.00;;;3.40;75.30;;;;;;5096139;28;20052;-85
2022/01/25 11:35:46;;;;;;;77.72;34.40;;;3.30;75.60;;;;;;5096731;28;20094;-85
2022/01/25 11:38:42;;;;;;;76.57;34.78;;;3.30;75.90;;;;;;5095682;28;20827;-85
2022/01/25 11:41:42;;;;;;;81.68;36.08;;;3.30;75.70;;;;;;5097764;28;20119;-85
2022/01/25 11:44:15;;;;;;;81.95;37.30;;;3.40;75.90;;;;;;5104575;27;20060;-84
2022/01/25 11:47:00;;;;;;;81.32;37.03;;;3.40;75.10;;;;;;5111157;28;20799;-84
2022/01/25 11:49:53;;;;;;;75.65;35.17;;;3.30;75.60;;;;;;5104901;27;20044;-85
2022/01/25 11:52:27;;;;;;;77.13;36.63;;;3.40;76.10;;;;;;5108139;28;20044;-85
2022/01/25 11:55:23;;;;;;;77.50;34.97;;;3.50;76.50;;;;;;5106564;27;20131;-84
2022/01/25 11:58:13;;;;;;;81.07;38.03;;;3.50;76.70;;;;;;5099025;28;20064;-83
2022/01/25 12:00:51;;;;;;;76.78;36.35;;;3.50;76.50;;;;;;5096201;28;20045;-85
2022/01/25 12:03:31;;;;;;;79.88;35.40;;;3.50;76.10;;;;;;5107216;27;20052;-86
2022/01/25 12:09:41;;;;;;;82.47;36.67;;;3.50;76.30;;;;;;5078594;28;20052;-84
2022/01/25 12:12:13;;;;;;;75.82;34.30;;;3.50;76.00;;;;;;5103297;27;20368;-84
2022/01/25 12:14:52;;;;;;;81.70;35.55;;;3.40;74.40;;;;;;5103284;28;20098;-86
2022/01/25 12:17:47;;;;;;;75.43;35.10;;;3.20;75.90;;;;;;5104230;28;20045;-84
2022/01/25 12:20:23;;;;;;;75.97;35.35;;;3.20;75.40;;;;;;5115831;28;20052;-84
2022/01/25 12:23:18;;;;;;;80.57;34.97;;;3.10;75.40;;;;;;5114884;28;20047;-84
2022/01/25 12:26:05;;;;;;;81.90;35.97;;;3.20;76.10;;;;;;5125410;28;20047;-85
2022/01/25 12:28:50;;;;;;;81.45;36.42;;;3.30;76.10;;;;;;5106851;28;20064;-84
2022/01/25 12:31:25;;;;;;;79.68;36.30;;;3.40;76.30;;;;;;5109921;28;20162;-84
2022/01/25 12:34:34;;;;;;;73.82;34.08;;;3.40;76.40;;;;;;5112707;28;20033;-84
2022/01/25 12:37:06;;;;;;;76.25;34.05;;;3.40;75.80;;;;;;5118297;28;20140;-85
2022/01/25 12:39:37;;;;;;;73.97;34.08;;;3.40;75.80;;;;;;5105968;28;20071;-85
2022/01/25 12:42:12;;;;;;;78.40;35.35;;;3.40;75.80;;;;;;5096894;28;20066;-86
2022/01/25 12:44:42;;;;;;;70.60;33.65;;;3.40;76.20;;;;;;5099450;28;20062;-85
2022/01/25 12:47:18;;;;;;;75.93;34.97;;;3.50;76.20;;;;;;5093793;28;20189;-84
2022/01/25 12:49:51;;;;;;;78.50;35.60;;;3.50;76.10;;;;;;5100243;28;20049;-85
2022/01/25 12:52:27;;;;;;;77.50;35.58;;;3.50;75.70;;;;;;5101262;28;20052;-85
2022/01/25 12:55:09;;;;;;;80.57;35.78;;;3.40;76.00;;;;;;5109409;28;20067;-85
2022/01/25 12:57:54;;;;;;;81.03;35.25;;;3.40;76.10;;;;;;5102252;27;20467;-86
2022/01/25 13:00:53;;;;;;;79.70;33.40;;;3.40;75.70;;;;;;5096599;28;20817;-85
2022/01/25 13:03:33;;;;;;;80.43;34.58;;;3.40;76.50;;;;;;5094057;28;20049;-85
2022/01/25 13:06:11;;;;;;;81.65;35.25;;;3.30;76.10;;;;;;5095748;27;20110;-85
2022/01/25 13:09:19;;;;;;;74.68;35.35;;;3.30;75.70;;;;;;5105016;27;20067;-84
2022/01/25 13:18:12;;;;;;;81.35;34.20;;;3.20;76.70;;;;;;5032213;28;20107;-85
2022/01/25 13:20:45;;;;;;;76.75;34.60;;;3.30;76.40;;;;;;5027684;28;20049;-85
2022/01/25 13:23:15;;;;;;;75.60;34.05;;;3.30;76.00;;;;;;5036663;28;20058;-85
2022/01/25 13:26:16;;;;;;;75.50;34.92;;;3.10;75.50;;;;;;5017046;28;20049;-85
2022/01/25 13:30:38;;;;;;;78.82;34.38;;;3.20;75.80;;;;;;5034121;28;20054;-85
2022/01/25 13:32:11;;;;;;;79.43;34.30;;;3.20;76.30;;;;;;5030655;28;20054;-85
2022/01/25 13:35:21;;;;;;;79.15;35.15;;;3.20;76.00;;;;;;5021799;28;20054;-84
2022/01/25 13:38:27;;;;;;;77.38;36.00;;;3.30;76.10;;;;;;4959152;28;20051;-85
2022/01/25 13:41:23;;;;;;;78.07;35.22;;;3.30;76.00;;;;;;4966229;28;20047;-85
2022/01/25 13:46:56;;;;;;;78.50;34.42;;;3.30;76.30;;;;;;4983583;28;20141;-85
2022/01/25 13:49:44;;;;;;;80.80;35.38;;;3.30;76.40;;;;;;5056792;28;20081;-85
2022/01/25 13:52:28;;;;;;;72.78;33.42;;;3.30;75.70;;;;;;5074332;28;20526;-85
2022/01/25 13:55:09;;;;;;;75.97;33.88;;;3.30;75.90;;;;;;5073152;28;20076;-85
2022/01/25 13:57:46;;;;;;;75.75;33.97;;;3.30;76.30;;;;;;5060177;28;20131;-85
2022/01/25 14:00:18;;;;;;;80.85;34.80;;;3.20;75.80;;;;;;5075201;28;20115;-85
2022/01/25 14:03:01;;;;;;;81.15;36.92;;;3.30;76.80;;;;;;5012634;28;20549;-85
2022/01/25 14:05:57;;;;;;;73.63;33.05;;;3.30;76.50;;;;;;5021467;28;20318;-85
2022/01/25 14:08:42;;;;;;;82.05;35.83;;;3.30;76.30;;;;;;5014440;28;20057;-86
2022/01/25 14:11:52;;;;;;;78.78;35.45;;;3.30;76.40;;;;;;5019431;28;20056;-85
2022/01/25 14:23:44;;;;;;;78.10;32.67;;;3.20;76.50;;;;;;5073110;28;20056;-85
2022/01/25 14:26:16;;;;;;;75.45;34.78;;;3.20;76.50;;;;;;5056032;28;20363;-85
2022/01/25 14:28:54;;;;;;;72.10;33.63;;;3.20;76.10;;;;;;5047762;28;20131;-85
2022/01/25 14:31:38;;;;;;;71.28;31.92;;;3.10;76.20;;;;;;5057745;28;20048;-84
2022/01/25 14:34:08;;;;;;;77.03;34.00;;;3.10;76.00;;;;;;5077562;28;20053;-84
2022/01/25 14:36:39;;;;;;;78.63;34.58;;;3.10;76.40;;;;;;5099336;28;20869;-85
2022/01/25 14:39:15;;;;;;;74.20;34.28;;;3.20;76.10;;;;;;5093887;28;20045;-85
2022/01/25 14:41:48;;;;;;;77.63;35.38;;;3.10;76.60;;;;;;5098024;28;20160;-85
2022/01/25 14:44:29;;;;;;;78.38;34.80;;;3.00;76.60;;;;;;5102012;28;20056;-86
2022/01/25 14:46:57;;;;;;;76.45;34.90;;;3.00;76.50;;;;;;5092920;28;20049;-85
2022/01/25 14:49:32;;;;;;;80.43;37.03;;;3.00;76.30;;;;;;5098200;28;20060;-84
2022/01/25 14:52:04;;;;;;;83.88;36.30;;;3.00;76.50;;;;;;5091506;28;20055;-85
2022/01/25 14:54:42;;;;;;;80.82;35.78;;;3.00;76.70;;;;;;5099107;28;20071;-85
2022/01/25 14:57:37;;;;;;;69.75;32.58;;;3.10;76.90;;;;;;5095078;27;20052;-85
2022/01/25 15:00:10;;;;;;;76.13;35.35;;;3.10;76.80;;;;;;5093218;27;20052;-85
2022/01/25 15:02:51;;;;;;;81.90;36.05;;;3.10;76.50;;;;;;5098196;28;20526;-85
2022/01/25 15:05:21;;;;;;;75.97;34.28;;;3.10;76.50;;;;;;5103861;28;20055;-85
2022/01/25 15:08:12;;;;;;;81.30;37.35;;;3.00;76.00;;;;;;5091937;28;20056;-84
2022/01/25 15:10:46;;;;;;;;;;;3.00;76.50;;;;;;5109624;28;20040;-85
2022/01/25 15:13:28;;;;;;;76.65;34.17;;;3.00;76.50;;;;;;5091227;28;20002;-85
2022/01/25 15:16:14;;;;;;;72.20;33.13;;;3.00;76.30;;;;;;5097128;28;20059;-84
2022/01/25 15:18:50;;;;;;;78.13;33.70;;;3.00;76.30;;;;;;5092323;28;20056;-85
2022/01/25 15:21:26;;;;;;;76.03;34.28;;;2.90;76.00;;;;;;5097731;28;20061;-85
2022/01/25 15:23:56;;;;;;;81.53;35.60;;;2.90;76.90;;;;;;5102447;28;20053;-85
2022/01/25 15:26:36;;;;;;;78.18;34.55;;;2.90;76.90;;;;;;5098429;28;20162;-85
2022/01/25 15:29:09;;;;;;;81.80;36.38;;;2.90;76.90;;;;;;5097648;28;20048;-85
2022/01/25 15:31:43;;;;;;;78.93;34.58;;;2.90;77.90;;;;;;5092317;28;20060;-85